createdAt,value
2023-03-01T00:02:26.738Z,15.32
2023-03-01T00:04:54.574Z,17.58
2023-03-01T00:07:22.309Z,13.75
2023-03-01T00:09:50.358Z,12.68
2023-03-01T00:12:18.079Z,13.45
2023-03-01T00:14:47.188Z,15.25
2023-03-01T00:17:14.968Z,14.82
2023-03-01T00:19:42.782Z,15.23
2023-03-01T00:22:10.499Z,13.70
2023-03-01T00:24:38.178Z,15.05
2023-03-01T00:27:05.955Z,16.00
2023-03-01T00:29:33.705Z,13.88
2023-03-01T00:32:03.033Z,13.88
2023-03-01T00:34:30.737Z,19.25
2023-03-01T00:37:05.907Z,16.08
2023-03-01T00:39:34.343Z,17.58
2023-03-01T00:42:02.106Z,18.17
2023-03-01T00:44:29.796Z,17.52
2023-03-01T00:46:57.689Z,15.18
2023-03-01T00:49:28.616Z,14.32
2023-03-01T00:51:56.336Z,14.48
2023-03-01T00:54:24.172Z,17.42
2023-03-01T00:56:51.902Z,19.40
2023-03-01T00:59:19.684Z,16.35
2023-03-01T01:01:47.457Z,18.35
2023-03-01T01:04:15.793Z,19.02
2023-03-01T01:06:46.442Z,16.15
2023-03-01T01:09:18.834Z,20.20
2023-03-01T01:11:47.553Z,18.83
2023-03-01T01:14:15.375Z,15.70
2023-03-01T01:16:43.125Z,17.83
2023-03-01T01:19:12.212Z,15.55
2023-03-01T01:21:39.974Z,17.35
2023-03-01T01:24:09.636Z,14.38
2023-03-01T01:26:37.379Z,18.83
2023-03-01T01:29:06.927Z,18.85
2023-03-01T01:31:35.892Z,17.80
2023-03-01T01:34:05.822Z,18.55
2023-03-01T01:36:34.575Z,18.65
2023-03-01T01:39:02.997Z,18.42
2023-03-01T01:41:32.706Z,20.70
2023-03-01T01:44:15.993Z,29.15
2023-03-01T01:46:46.338Z,20.70
2023-03-01T01:49:22.693Z,19.38
2023-03-01T01:51:53.390Z,21.90
2023-03-01T01:54:25.381Z,21.25
2023-03-01T01:56:59.376Z,15.93
2023-03-01T01:59:30.545Z,20.27
2023-03-01T02:02:01.403Z,18.95
2023-03-01T02:04:29.588Z,18.63
2023-03-01T02:07:02.306Z,19.17
2023-03-01T02:09:32.582Z,20.10
2023-03-01T02:12:03.095Z,19.17
2023-03-01T02:14:30.832Z,21.83
2023-03-01T02:16:58.699Z,24.85
2023-03-01T02:19:41.456Z,19.92
2023-03-01T02:22:19.447Z,22.15
2023-03-01T02:24:54.229Z,22.60
2023-03-01T02:27:28.064Z,17.58
2023-03-01T02:29:57.854Z,17.65
2023-03-01T02:32:26.436Z,22.20
2023-03-01T02:34:55.713Z,20.88
2023-03-01T02:37:25.711Z,21.55
2023-03-01T02:39:58.681Z,17.67
2023-03-01T02:42:30.282Z,18.65
2023-03-01T02:44:59.386Z,19.42
2023-03-01T02:47:27.202Z,22.85
2023-03-01T02:49:54.935Z,22.95
2023-03-01T02:52:47.485Z,23.00
2023-03-01T02:55:18.502Z,19.00
2023-03-01T02:57:51.581Z,24.85
2023-03-01T03:00:25.857Z,20.42
2023-03-01T03:02:57.723Z,19.90
2023-03-01T03:05:27.109Z,23.50
2023-03-01T03:07:54.893Z,18.70
2023-03-01T03:10:25.376Z,22.30
2023-03-01T03:12:54.232Z,20.88
2023-03-01T03:15:24.257Z,20.83
2023-03-01T03:17:53.587Z,18.73
2023-03-01T03:20:25.175Z,21.15
2023-03-01T03:22:55.090Z,23.20
2023-03-01T03:25:23.690Z,22.20
2023-03-01T03:27:57.386Z,21.48
2023-03-01T03:30:28.312Z,20.42
2023-03-01T03:32:56.859Z,20.98
2023-03-01T03:35:27.426Z,23.25
2023-03-01T03:38:04.179Z,24.27
2023-03-01T03:40:33.886Z,21.80
2023-03-01T03:43:01.691Z,20.50
2023-03-01T03:45:34.089Z,25.25
2023-03-01T03:48:02.510Z,24.23
2023-03-01T03:50:30.397Z,18.95
2023-03-01T03:52:58.280Z,21.27
2023-03-01T03:55:30.920Z,22.20
2023-03-01T03:58:02.972Z,21.15
2023-03-01T04:00:32.122Z,23.05
2023-03-01T04:02:59.863Z,22.70
2023-03-01T04:05:28.124Z,24.88
2023-03-01T04:08:07.928Z,23.38
2023-03-01T04:10:38.238Z,20.20
2023-03-01T04:13:06.475Z,30.00
2023-03-01T04:15:36.520Z,31.42
2023-03-01T04:18:05.794Z,27.20
2023-03-01T04:20:36.471Z,25.42
2023-03-01T04:23:11.426Z,24.45
2023-03-01T04:25:40.732Z,23.02
2023-03-01T04:28:09.383Z,26.98
2023-03-01T04:30:39.354Z,24.75
2023-03-01T04:33:08.529Z,25.77
2023-03-01T04:35:37.694Z,27.38
2023-03-01T04:38:06.361Z,22.88
2023-03-01T04:40:34.676Z,20.83
2023-03-01T04:43:03.061Z,25.52
2023-03-01T04:45:30.918Z,24.35
2023-03-01T04:48:00.143Z,21.75
2023-03-01T04:50:27.965Z,22.52
2023-03-01T04:52:59.304Z,24.35
2023-03-01T04:55:27.681Z,24.08
2023-03-01T04:57:55.559Z,26.13
2023-03-01T05:00:24.260Z,24.20
2023-03-01T05:02:55.125Z,24.40
2023-03-01T05:05:26.980Z,24.52
2023-03-01T05:07:56.096Z,23.92
2023-03-01T05:10:24.268Z,23.52
2023-03-01T05:12:53.041Z,23.15
2023-03-01T05:15:22.542Z,23.02
2023-03-01T05:17:50.575Z,23.42
2023-03-01T05:20:18.438Z,21.90
2023-03-01T05:22:47.571Z,23.08
2023-03-01T05:25:15.832Z,26.02
2023-03-01T05:27:43.584Z,30.52
2023-03-01T05:30:16.210Z,27.58
2023-03-01T05:32:46.842Z,22.65
2023-03-01T05:35:16.824Z,22.98
2023-03-01T05:37:45.940Z,26.83
2023-03-01T05:40:17.354Z,20.95
2023-03-01T05:42:46.438Z,24.33
2023-03-01T05:45:15.689Z,21.70
2023-03-01T05:47:46.527Z,24.70
2023-03-01T05:50:19.415Z,29.13
2023-03-01T05:52:49.279Z,26.38
2023-03-01T05:55:19.741Z,24.98
2023-03-01T05:57:47.994Z,24.48
2023-03-01T06:00:18.764Z,27.90
2023-03-01T06:02:46.958Z,23.73
2023-03-01T06:05:15.832Z,26.65
2023-03-01T06:07:44.851Z,24.08
2023-03-01T06:10:14.616Z,24.27
2023-03-01T06:12:44.628Z,27.45
2023-03-01T06:15:13.658Z,22.83
2023-03-01T06:17:42.935Z,22.65
2023-03-01T06:20:13.783Z,24.38
2023-03-01T06:22:41.665Z,23.15
2023-03-01T06:25:10.887Z,21.77
2023-03-01T06:27:38.868Z,22.38
2023-03-01T06:30:11.474Z,19.90
2023-03-01T06:32:42.731Z,22.38
2023-03-01T06:35:11.888Z,24.98
2023-03-01T06:37:40.053Z,22.65
2023-03-01T06:40:12.254Z,27.17
2023-03-01T06:42:41.180Z,22.80
2023-03-01T06:45:11.699Z,26.30
2023-03-01T06:47:39.532Z,22.38
2023-03-01T06:50:08.188Z,19.85
2023-03-01T06:52:36.077Z,24.23
2023-03-01T06:55:04.063Z,25.08
2023-03-01T06:57:31.874Z,25.58
2023-03-01T06:59:59.697Z,20.65
2023-03-01T07:02:28.897Z,23.98
2023-03-01T07:04:56.681Z,25.10
2023-03-01T07:07:24.648Z,24.58
2023-03-01T07:09:52.459Z,28.42
2023-03-01T07:12:20.137Z,22.70
2023-03-01T07:14:47.868Z,23.05
2023-03-01T07:17:15.624Z,24.60
2023-03-01T07:19:45.839Z,23.75
2023-03-01T07:22:13.635Z,23.42
2023-03-01T07:24:42.466Z,23.55
2023-03-01T07:27:10.320Z,21.92
2023-03-01T07:29:38.348Z,43.28
2023-03-01T07:32:07.202Z,31.05
2023-03-01T07:34:35.154Z,35.40
2023-03-01T07:37:04.287Z,35.38
2023-03-01T07:39:31.999Z,23.90
2023-03-01T07:41:59.710Z,23.35
2023-03-01T07:44:27.466Z,20.35
2023-03-01T07:46:57.244Z,23.35
2023-03-01T07:49:27.179Z,24.83
2023-03-01T07:51:54.976Z,19.65
2023-03-01T07:54:24.327Z,23.00
2023-03-01T07:56:52.761Z,20.13
2023-03-01T07:59:20.567Z,16.15
2023-03-01T08:01:48.368Z,21.85
2023-03-01T08:04:16.104Z,20.70
2023-03-01T08:06:43.781Z,17.42
2023-03-01T08:09:11.488Z,20.08
2023-03-01T08:11:40.557Z,16.77
2023-03-01T08:14:08.441Z,16.90
2023-03-01T08:16:36.501Z,15.77
2023-03-01T08:19:07.030Z,25.90
2023-03-01T08:21:36.316Z,21.15
2023-03-01T08:24:04.581Z,18.30
2023-03-01T08:26:32.811Z,17.42
2023-03-01T08:29:02.763Z,16.17
2023-03-01T08:31:33.182Z,16.95
2023-03-01T08:34:02.807Z,18.98
2023-03-01T08:36:33.085Z,20.70
2023-03-01T08:39:01.540Z,16.17
2023-03-01T08:41:29.683Z,22.85
2023-03-01T08:43:59.884Z,21.23
2023-03-01T08:46:30.519Z,16.25
2023-03-01T08:48:58.608Z,18.95
2023-03-01T08:51:27.743Z,17.67
2023-03-01T08:53:55.444Z,26.92
2023-03-01T08:56:23.168Z,18.17
2023-03-01T08:58:51.304Z,20.33
2023-03-01T09:01:22.234Z,17.85
2023-03-01T09:03:53.373Z,17.27
2023-03-01T09:06:23.296Z,24.10
2023-03-01T09:08:53.330Z,18.00
2023-03-01T09:11:24.913Z,23.52
2023-03-01T09:13:54.485Z,24.75
2023-03-01T09:16:25.369Z,18.05
2023-03-01T09:18:57.961Z,22.55
2023-03-01T09:21:39.497Z,20.48
2023-03-01T09:24:14.808Z,21.83
2023-03-01T09:26:44.783Z,17.92
2023-03-01T09:29:14.620Z,18.20
2023-03-01T09:31:44.790Z,57.22
2023-03-01T09:34:17.708Z,21.58
2023-03-01T09:36:47.507Z,16.80
2023-03-01T09:39:19.147Z,16.85
2023-03-01T09:41:53.205Z,15.70
2023-03-01T09:44:31.087Z,15.88
2023-03-01T09:47:01.337Z,20.10
2023-03-01T09:49:34.464Z,16.83
2023-03-01T09:52:10.160Z,16.20
2023-03-01T09:54:40.772Z,15.07
2023-03-01T09:57:19.556Z,16.20
2023-03-01T10:00:05.065Z,16.05
2023-03-01T10:02:40.966Z,17.98
2023-03-01T10:05:24.092Z,19.23
2023-03-01T10:08:01.208Z,19.02
2023-03-01T10:10:35.319Z,18.30
2023-03-01T10:13:10.641Z,19.40
2023-03-01T10:15:44.818Z,18.42
2023-03-01T10:18:19.044Z,15.95
2023-03-01T10:20:54.363Z,22.15
2023-03-01T10:23:22.150Z,22.00
2023-03-01T10:26:05.395Z,16.70
2023-03-01T10:28:43.318Z,18.50
2023-03-01T10:31:16.168Z,16.20
2023-03-01T10:33:44.138Z,14.60
2023-03-01T10:36:13.292Z,17.50
2023-03-01T10:38:53.285Z,17.08
2023-03-01T10:41:21.595Z,17.10
2023-03-01T10:43:52.488Z,17.55
2023-03-01T10:46:28.404Z,17.00
2023-03-01T10:49:15.214Z,17.52
2023-03-01T10:51:46.961Z,16.40
2023-03-01T10:54:20.191Z,17.02
2023-03-01T10:56:50.255Z,15.52
2023-03-01T10:59:30.247Z,13.77
2023-03-01T11:02:24.485Z,25.45
2023-03-01T11:05:00.926Z,19.77
2023-03-01T11:07:30.569Z,19.13
2023-03-01T11:09:58.394Z,17.08
2023-03-01T11:12:27.249Z,15.77
2023-03-01T11:14:56.598Z,15.70
2023-03-01T11:17:30.006Z,15.98
2023-03-01T11:20:15.241Z,16.38
2023-03-01T11:22:49.340Z,17.15
2023-03-01T11:25:19.267Z,18.77
2023-03-01T11:27:48.498Z,14.88
2023-03-01T11:30:21.915Z,19.98
2023-03-01T11:32:57.081Z,20.23
2023-03-01T11:35:27.692Z,16.95
2023-03-01T11:38:06.919Z,17.23
2023-03-01T11:40:41.311Z,19.42
2023-03-01T11:43:20.175Z,16.85
2023-03-01T11:46:03.758Z,14.70
2023-03-01T11:48:49.909Z,15.23
2023-03-01T11:51:25.309Z,22.05
2023-03-01T11:54:06.771Z,13.32
2023-03-01T11:56:38.251Z,17.20
2023-03-01T11:59:28.954Z,16.23
2023-03-01T12:02:18.360Z,15.10
2023-03-01T12:05:15.753Z,15.63
2023-03-01T12:07:55.010Z,13.15
2023-03-01T12:10:27.975Z,13.10
2023-03-01T12:13:15.929Z,17.20
2023-03-01T12:15:52.674Z,12.35
2023-03-01T12:18:54.403Z,13.25
2023-03-01T12:21:37.740Z,13.88
2023-03-01T12:24:21.672Z,14.73
2023-03-01T12:27:00.470Z,17.27
2023-03-01T12:29:36.400Z,17.73
2023-03-01T12:32:35.340Z,15.98
2023-03-01T12:35:34.808Z,17.25
2023-03-01T12:38:16.025Z,16.73
2023-03-01T12:41:12.346Z,17.40
2023-03-01T12:43:56.904Z,17.48
2023-03-01T12:46:38.032Z,18.80
2023-03-01T12:49:13.171Z,15.73
2023-03-01T12:51:44.339Z,17.40
2023-03-01T12:54:17.522Z,16.85
2023-03-01T12:56:53.072Z,18.83
2023-03-01T12:59:27.149Z,17.17
2023-03-01T13:01:59.069Z,15.77
2023-03-01T13:04:38.115Z,16.20
2023-03-01T13:07:21.376Z,16.85
2023-03-01T13:10:02.182Z,20.02
2023-03-01T13:13:03.064Z,16.65
2023-03-01T13:15:35.332Z,17.48
2023-03-01T13:18:05.953Z,19.67
2023-03-01T13:20:46.631Z,21.10
2023-03-01T13:23:27.085Z,17.20
2023-03-01T13:26:16.744Z,16.20
2023-03-01T13:28:56.858Z,16.80
2023-03-01T13:32:01.350Z,16.02
2023-03-01T13:34:58.453Z,13.75
2023-03-01T13:37:34.222Z,14.27
2023-03-01T13:40:06.464Z,15.30
2023-03-01T13:42:38.929Z,15.60
2023-03-01T13:45:23.307Z,13.57
2023-03-01T13:47:59.046Z,16.30
2023-03-01T13:50:32.311Z,19.70
2023-03-01T13:53:03.619Z,14.70
2023-03-01T13:55:40.254Z,16.33
2023-03-01T13:58:20.597Z,17.80
2023-03-01T14:00:48.359Z,15.52
2023-03-01T14:03:18.899Z,14.68
2023-03-01T14:06:14.561Z,17.27
2023-03-01T14:11:36.999Z,14.73
2023-03-01T14:14:20.789Z,15.85
2023-03-01T14:16:59.526Z,14.25
2023-03-01T14:19:33.826Z,16.95
2023-03-01T14:22:13.678Z,15.30
2023-03-01T14:24:48.247Z,19.52
2023-03-01T14:27:16.247Z,15.95
2023-03-01T14:29:44.097Z,17.05
2023-03-01T14:32:14.550Z,14.75
2023-03-01T14:34:46.721Z,15.85
2023-03-01T14:37:22.778Z,13.43
2023-03-01T14:39:51.145Z,17.00
2023-03-01T14:42:20.160Z,14.65
2023-03-01T14:44:50.792Z,16.48
2023-03-01T14:47:26.633Z,16.65
2023-03-01T14:49:59.220Z,15.10
2023-03-01T14:52:36.872Z,14.70
2023-03-01T14:55:08.890Z,17.45
2023-03-01T14:57:36.703Z,12.52
2023-03-01T15:00:08.568Z,14.60
2023-03-01T15:02:37.234Z,16.77
2023-03-01T15:05:08.910Z,14.85
2023-03-01T15:07:42.440Z,14.80
2023-03-01T15:10:21.292Z,17.15
2023-03-01T15:12:49.101Z,13.88
2023-03-01T15:15:37.991Z,18.38
2023-03-01T15:18:15.590Z,14.40
2023-03-01T15:20:43.637Z,15.77
2023-03-01T15:23:23.524Z,16.02
2023-03-01T15:25:57.339Z,17.60
2023-03-01T15:28:28.448Z,15.35
2023-03-01T15:31:02.725Z,15.73
2023-03-01T15:33:40.198Z,13.43
2023-03-01T15:36:43.337Z,17.00
2023-03-01T15:39:32.545Z,18.60
2023-03-01T15:42:00.803Z,13.68
2023-03-01T15:44:41.615Z,14.10
2023-03-01T15:47:26.737Z,17.02
2023-03-01T15:49:56.690Z,15.23
2023-03-01T15:52:30.095Z,14.57
2023-03-01T15:55:01.986Z,14.32
2023-03-01T15:57:29.931Z,16.85
2023-03-01T15:59:57.784Z,15.15
2023-03-01T16:02:26.526Z,12.13
2023-03-01T16:04:54.773Z,13.27
2023-03-01T16:07:22.511Z,15.43
2023-03-01T16:09:50.247Z,16.85
2023-03-01T16:12:21.375Z,18.38
2023-03-01T16:14:49.745Z,18.70
2023-03-01T16:17:17.566Z,15.70
2023-03-01T16:19:45.271Z,15.38
2023-03-01T16:22:13.332Z,13.25
2023-03-01T16:24:41.833Z,15.73
2023-03-01T16:27:09.991Z,18.25
2023-03-01T16:29:39.157Z,16.00
2023-03-01T16:32:07.464Z,13.52
2023-03-01T16:34:35.422Z,18.00
2023-03-01T16:37:03.201Z,15.25
2023-03-01T16:39:30.946Z,16.48
2023-03-01T16:42:01.584Z,15.60
2023-03-01T16:44:29.456Z,18.65
2023-03-01T16:46:59.129Z,20.02
2023-03-01T16:49:27.135Z,15.43
2023-03-01T16:51:56.011Z,13.98
2023-03-01T16:54:23.829Z,13.18
2023-03-01T16:56:51.664Z,16.83
2023-03-01T16:59:20.278Z,13.15
2023-03-01T17:01:48.430Z,14.80
2023-03-01T17:04:19.355Z,15.95
2023-03-01T17:06:47.666Z,11.80
2023-03-01T17:09:17.706Z,13.23
2023-03-01T17:11:45.785Z,16.08
2023-03-01T17:14:13.554Z,14.85
2023-03-01T17:16:41.359Z,19.15
2023-03-01T17:19:09.299Z,17.38
2023-03-01T17:21:38.687Z,17.17
2023-03-01T17:24:06.752Z,15.07
2023-03-01T17:26:34.509Z,14.07
2023-03-01T17:29:03.805Z,17.25
2023-03-01T17:31:32.244Z,28.70
2023-03-01T17:34:01.742Z,21.17
2023-03-01T17:36:29.732Z,21.55
2023-03-01T17:38:58.946Z,14.30
2023-03-01T17:41:27.075Z,15.85
2023-03-01T17:43:55.205Z,17.42
2023-03-01T17:46:24.221Z,19.35
2023-03-01T17:48:52.033Z,15.57
2023-03-01T17:51:20.004Z,12.55
2023-03-01T17:53:47.786Z,15.38
2023-03-01T17:56:17.130Z,15.55
2023-03-01T17:58:47.015Z,16.77
2023-03-01T18:01:17.526Z,17.15
2023-03-01T18:03:47.563Z,15.15
2023-03-01T18:06:17.632Z,14.60
2023-03-01T18:08:46.227Z,15.73
2023-03-01T18:11:15.881Z,16.60
2023-03-01T18:13:43.697Z,16.85
2023-03-01T18:16:13.525Z,12.57
2023-03-01T18:18:41.567Z,19.35
2023-03-01T18:21:10.533Z,16.90
2023-03-01T18:23:38.941Z,17.80
2023-03-01T18:26:09.250Z,21.02
2023-03-01T18:28:39.318Z,20.33
2023-03-01T18:31:10.693Z,23.83
2023-03-01T18:33:39.162Z,31.67
2023-03-01T18:36:16.830Z,28.08
2023-03-01T18:38:44.617Z,24.25
2023-03-01T18:41:12.549Z,23.42
2023-03-01T18:43:41.584Z,21.55
2023-03-01T18:46:09.396Z,19.73
2023-03-01T18:48:37.858Z,17.45
2023-03-01T18:51:10.549Z,17.88
2023-03-01T18:53:38.406Z,16.40
2023-03-01T18:56:07.467Z,21.25
2023-03-01T18:58:35.308Z,18.88
2023-03-01T19:01:07.799Z,16.52
2023-03-01T19:03:36.430Z,19.27
2023-03-01T19:06:05.098Z,17.90
2023-03-01T19:08:33.494Z,18.60
2023-03-01T19:11:03.261Z,21.35
2023-03-01T19:13:31.710Z,23.75
2023-03-01T19:16:06.954Z,19.45
2023-03-01T19:18:35.315Z,18.87
2023-03-01T19:21:05.206Z,25.02
2023-03-01T19:23:35.024Z,20.63
2023-03-01T19:26:04.501Z,21.52
2023-03-01T19:28:32.403Z,20.88
2023-03-01T19:31:02.239Z,20.52
2023-03-01T19:33:34.722Z,19.65
2023-03-01T19:36:03.606Z,22.80
2023-03-01T19:38:31.523Z,21.35
2023-03-01T19:40:59.484Z,22.63
2023-03-01T19:43:27.262Z,19.08
2023-03-01T19:45:55.925Z,18.58
2023-03-01T19:48:24.452Z,18.75
2023-03-01T19:50:54.476Z,17.83
2023-03-01T19:53:22.538Z,26.13
2023-03-01T19:55:53.002Z,19.88
2023-03-01T19:58:20.870Z,22.30
2023-03-01T20:00:48.783Z,19.10
2023-03-01T20:03:16.581Z,20.17
2023-03-01T20:05:44.616Z,20.23
2023-03-01T20:08:14.217Z,22.17
2023-03-01T20:10:43.302Z,19.65
2023-03-01T20:13:11.085Z,21.35
2023-03-01T20:15:42.512Z,26.13
2023-03-01T20:18:10.768Z,22.63
2023-03-01T20:20:38.847Z,20.92
2023-03-01T20:23:06.782Z,26.70
2023-03-01T20:25:35.928Z,20.40
2023-03-01T20:28:03.802Z,16.90
2023-03-01T20:30:31.524Z,24.15
2023-03-01T20:32:59.555Z,22.38
2023-03-01T20:35:28.136Z,22.23
2023-03-01T20:37:55.931Z,21.88
2023-03-01T20:40:26.942Z,20.77
2023-03-01T20:42:56.665Z,18.58
2023-03-01T20:45:28.025Z,21.50
2023-03-01T20:47:56.761Z,16.77
2023-03-01T20:50:24.577Z,21.13
2023-03-01T20:52:52.388Z,24.27
2023-03-01T20:55:20.475Z,19.45
2023-03-01T20:57:48.229Z,21.80
2023-03-01T21:00:18.108Z,20.75
2023-03-01T21:02:45.834Z,20.92
2023-03-01T21:05:13.738Z,23.23
2023-03-01T21:07:42.745Z,26.77
2023-03-01T21:10:11.956Z,24.30
2023-03-01T21:12:39.821Z,20.88
2023-03-01T21:15:09.713Z,26.13
2023-03-01T21:17:40.382Z,21.15
2023-03-01T21:20:09.484Z,21.55
2023-03-01T21:22:37.251Z,22.67
2023-03-01T21:25:06.121Z,22.52
2023-03-01T21:27:37.496Z,21.33
2023-03-01T21:30:06.201Z,21.80
2023-03-01T21:32:34.152Z,26.02
2023-03-01T21:35:03.681Z,24.15
2023-03-01T21:37:31.381Z,22.13
2023-03-01T21:39:59.249Z,25.67
2023-03-01T21:42:27.132Z,25.35
2023-03-01T21:44:54.970Z,25.00
2023-03-01T21:47:22.790Z,21.98
2023-03-01T21:49:50.678Z,26.70
2023-03-01T21:52:19.966Z,23.52
2023-03-01T21:54:51.072Z,25.00
2023-03-01T21:57:18.836Z,26.65
2023-03-01T21:59:46.773Z,21.85
2023-03-01T22:02:15.704Z,23.50
2023-03-01T22:04:43.441Z,25.55
2023-03-01T22:07:11.129Z,26.17
2023-03-01T22:09:40.438Z,24.50
2023-03-01T22:12:08.487Z,24.48
2023-03-01T22:14:36.456Z,27.67
2023-03-01T22:17:04.269Z,26.35
2023-03-01T22:19:32.204Z,25.90
2023-03-01T22:22:00.111Z,26.17
2023-03-01T22:24:28.594Z,24.20
2023-03-01T22:26:57.823Z,26.98
2023-03-01T22:29:28.838Z,25.08
2023-03-01T22:31:57.957Z,28.20
2023-03-01T22:34:26.496Z,24.10
2023-03-01T22:36:54.426Z,29.67
2023-03-01T22:39:22.706Z,28.42
2023-03-01T22:41:51.472Z,24.58
2023-03-01T22:44:22.704Z,24.90
2023-03-01T22:46:51.219Z,27.85
2023-03-01T22:49:19.740Z,24.65
2023-03-01T22:51:48.073Z,23.70
2023-03-01T22:54:17.723Z,29.42
2023-03-01T22:56:46.426Z,25.45
2023-03-01T22:59:16.235Z,24.45
2023-03-01T23:01:47.625Z,26.70
2023-03-01T23:04:15.834Z,29.08
2023-03-01T23:06:51.598Z,30.17
2023-03-01T23:09:20.786Z,24.70
2023-03-01T23:11:49.137Z,26.67
2023-03-01T23:14:17.087Z,29.30
2023-03-01T23:16:46.469Z,26.42
2023-03-01T23:19:16.362Z,29.38
2023-03-01T23:21:47.405Z,27.35
2023-03-01T23:24:15.636Z,28.60
2023-03-01T23:26:45.573Z,25.02
2023-03-01T23:29:13.800Z,26.73
2023-03-01T23:31:41.602Z,26.10
2023-03-01T23:34:10.758Z,31.05
2023-03-01T23:36:39.027Z,28.52
2023-03-01T23:39:07.533Z,26.70
2023-03-01T23:41:36.170Z,29.67
2023-03-01T23:44:05.664Z,31.92
2023-03-01T23:46:36.076Z,26.45
2023-03-01T23:49:04.527Z,33.03
2023-03-01T23:51:33.619Z,26.85
2023-03-01T23:54:05.305Z,28.90
2023-03-01T23:56:35.174Z,32.38
2023-03-01T23:59:05.966Z,27.40
